Time;durP1;ratioP1;P1;durP2;ratioP2;P2;SDS_P1;SDS_P2;PMS_P1;PMS_P2;Temp;Humidity;BMP_temperature;BMP_pressure;BME280_temperature;BME280_humidity;BME280_pressure;Samples;Min_cycle;Max_cycle;Signal;HPM_P1;HPM_P2
2023/02/14 00:02:36;;;;;;;;;36.75;29.50;;;;;;;;5039994;28;51179;-48
2023/02/14 00:05:20;;;;;;;;;38.00;30.25;;;;;;;;5039603;28;51549;-48
2023/02/14 00:08:04;;;;;;;;;34.25;29.50;;;;;;;;5053185;28;51084;-53
2023/02/14 00:10:49;;;;;;;;;34.00;29.75;;;;;;;;5060051;28;51041;-51
2023/02/14 00:13:33;;;;;;;;;36.50;30.00;;;;;;;;5059698;28;51147;-48
2023/02/14 00:16:18;;;;;;;;;39.00;29.00;;;;;;;;5059784;28;51144;-50
2023/02/14 00:19:02;;;;;;;;;35.00;27.25;;;;;;;;5059915;28;51568;-48
2023/02/14 00:21:47;;;;;;;;;29.50;26.00;;;;;;;;5040889;28;51015;-51
2023/02/14 00:24:31;;;;;;;;;35.50;29.00;;;;;;;;5039599;28;51386;-49
2023/02/14 00:27:15;;;;;;;;;33.00;28.25;;;;;;;;5039909;28;51244;-49
2023/02/14 00:30:01;;;;;;;;;30.75;28.75;;;;;;;;5039603;28;51246;-49
2023/02/14 00:32:46;;;;;;;;;26.75;21.50;;;;;;;;5039448;28;51341;-50
2023/02/14 00:35:30;;;;;;;;;34.50;28.75;;;;;;;;5040062;28;51117;-50
2023/02/14 00:38:14;;;;;;;;;36.25;30.50;;;;;;;;5039515;28;51529;-48
2023/02/14 00:40:59;;;;;;;;;29.50;22.00;;;;;;;;5039235;28;51004;-49
2023/02/14 00:43:51;;;;;;;;;36.50;28.00;;;;;;;;5040954;28;51932;-50
2023/02/14 00:46:35;;;;;;;;;37.00;30.50;;;;;;;;5039500;28;51193;-50
2023/02/14 00:49:19;;;;;;;;;36.00;28.00;;;;;;;;5039257;28;51201;-51
2023/02/14 00:52:04;;;;;;;;;37.75;29.50;;;;;;;;5039021;28;51252;-52
2023/02/14 00:54:48;;;;;;;;;32.00;27.50;;;;;;;;5038954;28;51424;-50
2023/02/14 00:57:33;;;;;;;;;35.50;29.50;;;;;;;;5039175;28;51365;-50
2023/02/14 01:00:17;;;;;;;;;36.00;29.50;;;;;;;;5039465;28;51221;-48
2023/02/14 01:03:02;;;;;;;;;28.75;27.00;;;;;;;;5039074;28;51420;-49
2023/02/14 01:05:47;;;;;;;;;29.00;25.75;;;;;;;;5038872;28;51187;-49
2023/02/14 01:08:31;;;;;;;;;28.75;22.50;;;;;;;;5053953;28;51492;-52
2023/02/14 01:11:18;;;;;;;;;29.25;25.75;;;;;;;;5059716;28;51160;-49
2023/02/14 01:14:02;;;;;;;;;30.00;27.00;;;;;;;;5058968;28;50998;-51
2023/02/14 01:16:46;;;;;;;;;32.25;28.75;;;;;;;;5061176;28;51076;-48
2023/02/14 01:19:31;;;;;;;;;28.00;26.00;;;;;;;;5057713;28;51122;-48
2023/02/14 01:22:15;;;;;;;;;33.00;27.50;;;;;;;;5063095;28;51035;-48
2023/02/14 01:24:59;;;;;;;;;28.50;24.75;;;;;;;;5063204;28;51089;-51
2023/02/14 01:27:44;;;;;;;;;39.75;28.50;;;;;;;;5063022;28;51381;-48
2023/02/14 01:30:28;;;;;;;;;36.75;28.50;;;;;;;;5063145;28;51149;-49
2023/02/14 01:33:13;;;;;;;;;29.75;27.25;;;;;;;;5062909;28;51316;-49
2023/02/14 01:35:58;;;;;;;;;31.00;30.00;;;;;;;;5062924;28;51039;-50
2023/02/14 01:38:42;;;;;;;;;33.25;26.75;;;;;;;;5062962;28;51335;-50
2023/02/14 01:41:27;;;;;;;;;31.50;26.25;;;;;;;;5062953;28;51215;-48
2023/02/14 01:44:14;;;;;;;;;31.25;27.50;;;;;;;;5062793;28;51607;-49
2023/02/14 01:47:00;;;;;;;;;29.00;28.25;;;;;;;;5062519;28;51087;-48
2023/02/14 01:50:05;;;;;;;;;32.75;27.75;;;;;;;;5048095;28;51075;-50
2023/02/14 01:52:56;;;;;;;;;32.75;28.00;;;;;;;;5040391;28;51349;-49
2023/02/14 01:55:45;;;;;;;;;31.00;29.75;;;;;;;;5056634;28;51205;-51
2023/02/14 01:58:33;;;;;;;;;30.75;28.00;;;;;;;;5062548;28;51098;-48
2023/02/14 02:01:18;;;;;;;;;32.50;25.00;;;;;;;;5062566;28;51208;-49
2023/02/14 02:04:08;;;;;;;;;41.75;30.75;;;;;;;;5062119;28;51604;-48
2023/02/14 02:06:57;;;;;;;;;31.50;30.25;;;;;;;;5062117;28;51065;-48
2023/02/14 02:09:45;;;;;;;;;35.00;30.75;;;;;;;;5062433;28;51174;-47
2023/02/14 02:12:29;;;;;;;;;40.75;30.50;;;;;;;;5062209;28;51065;-48
2023/02/14 02:15:14;;;;;;;;;38.50;31.25;;;;;;;;5062430;28;51347;-49
2023/02/14 02:18:05;;;;;;;;;35.25;31.00;;;;;;;;5062045;28;51147;-48
2023/02/14 02:21:22;;;;;;;;;39.50;30.25;;;;;;;;5062225;28;51210;-50
2023/02/14 02:24:12;;;;;;;;;34.75;29.50;;;;;;;;5036027;28;51411;-49
2023/02/14 02:27:15;;;;;;;;;31.50;28.00;;;;;;;;5050091;28;52822;-48
2023/02/14 02:30:02;;;;;;;;;35.75;30.00;;;;;;;;5041836;28;51702;-47
2023/02/14 02:32:46;;;;;;;;;37.75;29.25;;;;;;;;5041763;28;51115;-48
2023/02/14 02:35:48;;;;;;;;;38.50;32.25;;;;;;;;5041450;28;51670;-49
2023/02/14 02:38:43;;;;;;;;;58.50;45.50;;;;;;;;5041517;28;51360;-47
2023/02/14 02:41:31;;;;;;;;;77.25;65.50;;;;;;;;5041581;28;51140;-47
2023/02/14 02:44:15;;;;;;;;;56.00;42.25;;;;;;;;5041254;28;51056;-49
2023/02/14 02:47:06;;;;;;;;;31.25;30.50;;;;;;;;5041550;28;51505;-47
2023/02/14 02:53:06;;;;;;;;;39.00;30.75;;;;;;;;5033213;28;51115;-47
2023/02/14 02:59:05;;;;;;;;;32.75;30.00;;;;;;;;5055873;28;51164;-49
2023/02/14 03:02:08;;;;;;;;;33.75;25.75;;;;;;;;5061495;28;51495;-48
2023/02/14 03:04:57;;;;;;;;;34.50;29.00;;;;;;;;5061270;28;51133;-47
2023/02/14 03:07:41;;;;;;;;;34.75;30.50;;;;;;;;5061432;28;51074;-49
2023/02/14 03:10:28;;;;;;;;;37.00;29.75;;;;;;;;5060937;28;51196;-50
2023/02/14 03:13:21;;;;;;;;;34.00;28.25;;;;;;;;5056955;28;51114;-49
2023/02/14 03:16:06;;;;;;;;;35.00;29.25;;;;;;;;5061124;28;51097;-47
2023/02/14 03:19:03;;;;;;;;;33.75;29.00;;;;;;;;5061257;28;51133;-52
2023/02/14 03:21:54;;;;;;;;;31.25;27.75;;;;;;;;5060756;28;51284;-49
2023/02/14 03:24:49;;;;;;;;;17.50;10.50;;;;;;;;5060680;28;51384;-48
2023/02/14 03:27:56;;;;;;;;;36.00;27.50;;;;;;;;5060805;28;51595;-48
2023/02/14 03:30:59;;;;;;;;;36.75;28.50;;;;;;;;5037667;28;51040;-48
2023/02/14 03:33:49;;;;;;;;;42.25;35.50;;;;;;;;5060826;28;51114;-50
2023/02/14 03:36:34;;;;;;;;;43.25;35.50;;;;;;;;5060223;28;51100;-49
2023/02/14 03:39:28;;;;;;;;;34.75;31.50;;;;;;;;5059874;28;51148;-49
2023/02/14 03:42:17;;;;;;;;;33.50;28.00;;;;;;;;5060672;28;51105;-48
2023/02/14 03:45:03;;;;;;;;;34.25;29.50;;;;;;;;5060731;28;51067;-51
2023/02/14 03:47:50;;;;;;;;;33.75;30.00;;;;;;;;5060164;28;51460;-52
2023/02/14 03:50:36;;;;;;;;;37.00;32.00;;;;;;;;5060321;28;51208;-48
2023/02/14 03:53:23;;;;;;;;;36.00;30.25;;;;;;;;5060336;28;51168;-49
2023/02/14 03:56:08;;;;;;;;;42.50;32.25;;;;;;;;5060110;28;51154;-48
2023/02/14 03:58:55;;;;;;;;;35.75;30.25;;;;;;;;5060327;28;51153;-50
2023/02/14 04:01:48;;;;;;;;;34.25;28.75;;;;;;;;5059705;28;51172;-48
2023/02/14 04:04:34;;;;;;;;;38.00;32.00;;;;;;;;5060234;28;51172;-49
2023/02/14 04:07:20;;;;;;;;;36.50;31.50;;;;;;;;5060184;28;51093;-48
2023/02/14 04:10:05;;;;;;;;;39.75;32.50;;;;;;;;5060250;28;51188;-49
2023/02/14 04:12:49;;;;;;;;;45.25;33.00;;;;;;;;5059671;28;51071;-49
2023/02/14 04:15:34;;;;;;;;;47.25;36.00;;;;;;;;5060025;28;51198;-48
2023/02/14 04:21:21;;;;;;;;;45.50;33.75;;;;;;;;5059825;28;51133;-49
2023/02/14 04:24:05;;;;;;;;;45.25;37.00;;;;;;;;5060122;28;51099;-50
2023/02/14 04:30:03;;;;;;;;;45.25;36.25;;;;;;;;5057444;28;51348;-48
2023/02/14 04:32:48;;;;;;;;;43.75;35.00;;;;;;;;5059328;28;51428;-49
2023/02/14 04:35:32;;;;;;;;;42.75;33.25;;;;;;;;5060090;28;51085;-48
2023/02/14 04:38:16;;;;;;;;;49.50;38.00;;;;;;;;5059439;28;51133;-49
2023/02/14 04:41:01;;;;;;;;;47.25;35.75;;;;;;;;5059462;28;51165;-50
2023/02/14 04:43:45;;;;;;;;;47.50;35.25;;;;;;;;5059455;28;51570;-49
2023/02/14 04:46:30;;;;;;;;;45.00;36.00;;;;;;;;5043756;28;51197;-49
2023/02/14 04:49:14;;;;;;;;;44.75;36.00;;;;;;;;5039662;28;51129;-48
2023/02/14 04:51:59;;;;;;;;;47.25;36.75;;;;;;;;5038949;28;51380;-49
2023/02/14 04:54:43;;;;;;;;;49.50;37.50;;;;;;;;5039315;28;51202;-51
2023/02/14 04:57:27;;;;;;;;;45.00;35.00;;;;;;;;5053313;28;51096;-49
2023/02/14 05:00:12;;;;;;;;;52.25;39.00;;;;;;;;5059559;28;51026;-48
2023/02/14 05:02:56;;;;;;;;;50.25;38.75;;;;;;;;5059267;28;51469;-50
2023/02/14 05:05:40;;;;;;;;;56.50;36.00;;;;;;;;5059342;28;51345;-50
2023/02/14 05:08:25;;;;;;;;;45.50;38.00;;;;;;;;5059423;28;51473;-50
2023/02/14 05:11:09;;;;;;;;;46.00;36.00;;;;;;;;5058949;28;51179;-49
2023/02/14 05:13:54;;;;;;;;;50.00;38.75;;;;;;;;5059694;28;51133;-49
2023/02/14 05:16:38;;;;;;;;;51.75;39.50;;;;;;;;5058983;28;51104;-48
2023/02/14 05:19:23;;;;;;;;;52.50;40.00;;;;;;;;5059218;28;51629;-49
2023/02/14 05:22:07;;;;;;;;;46.00;35.25;;;;;;;;5058977;28;51053;-47
2023/02/14 05:24:52;;;;;;;;;51.75;37.75;;;;;;;;5059431;28;51145;-48
2023/02/14 05:27:36;;;;;;;;;49.00;38.00;;;;;;;;5058989;28;51442;-51
2023/02/14 05:30:26;;;;;;;;;49.00;38.75;;;;;;;;5058972;28;51055;-51
2023/02/14 05:33:11;;;;;;;;;47.25;38.50;;;;;;;;5059072;28;51122;-49
2023/02/14 05:35:57;;;;;;;;;51.50;39.25;;;;;;;;5058939;28;51072;-47
2023/02/14 05:38:41;;;;;;;;;49.25;39.25;;;;;;;;5059383;28;51018;-49
2023/02/14 05:41:26;;;;;;;;;49.50;40.50;;;;;;;;5058655;28;51052;-49
2023/02/14 05:44:10;;;;;;;;;46.75;36.00;;;;;;;;5058909;28;51122;-49
2023/02/14 05:46:55;;;;;;;;;44.75;35.50;;;;;;;;5058923;28;51187;-47
2023/02/14 05:49:39;;;;;;;;;52.00;41.00;;;;;;;;5059299;28;51166;-52
2023/02/14 05:52:23;;;;;;;;;49.75;37.50;;;;;;;;5058611;28;51082;-49
2023/02/14 05:55:08;;;;;;;;;52.25;40.50;;;;;;;;5058959;28;51152;-48
2023/02/14 05:57:52;;;;;;;;;53.75;42.00;;;;;;;;5059031;28;51601;-48
2023/02/14 06:00:37;;;;;;;;;55.50;43.00;;;;;;;;5058672;28;51076;-49
2023/02/14 06:03:21;;;;;;;;;57.00;43.00;;;;;;;;5061377;28;51251;-48
2023/02/14 06:06:06;;;;;;;;;48.00;39.25;;;;;;;;5062450;28;51604;-48
2023/02/14 06:08:50;;;;;;;;;55.75;43.50;;;;;;;;5062499;28;51090;-49
2023/02/14 06:11:35;;;;;;;;;58.00;45.50;;;;;;;;5053917;28;51067;-45
2023/02/14 06:14:19;;;;;;;;;58.75;44.25;;;;;;;;5062511;28;51050;-46
2023/02/14 06:17:04;;;;;;;;;52.50;39.00;;;;;;;;5047450;28;51552;-44
2023/02/14 06:19:48;;;;;;;;;57.50;44.75;;;;;;;;5042232;28;51086;-45
2023/02/14 06:22:33;;;;;;;;;55.75;43.25;;;;;;;;5060522;28;51655;-46
2023/02/14 06:25:17;;;;;;;;;55.75;43.00;;;;;;;;5062083;28;51143;-45
2023/02/14 06:28:02;;;;;;;;;55.00;41.75;;;;;;;;5062348;28;51077;-46
2023/02/14 06:30:46;;;;;;;;;57.00;45.75;;;;;;;;5052546;28;51236;-48
2023/02/14 06:33:30;;;;;;;;;54.50;44.25;;;;;;;;5042906;28;51525;-45
2023/02/14 06:36:15;;;;;;;;;56.50;42.50;;;;;;;;5041747;28;51137;-46
2023/02/14 06:38:59;;;;;;;;;54.00;42.00;;;;;;;;5055448;28;51082;-46
2023/02/14 06:41:43;;;;;;;;;52.00;41.25;;;;;;;;5061506;28;51103;-47
2023/02/14 06:44:28;;;;;;;;;54.25;43.50;;;;;;;;5061730;28;51121;-46
2023/02/14 06:47:12;;;;;;;;;49.25;39.75;;;;;;;;5061955;28;51609;-44
2023/02/14 06:49:58;;;;;;;;;61.50;46.00;;;;;;;;5061707;28;51053;-46
2023/02/14 06:52:43;;;;;;;;;62.50;47.00;;;;;;;;5061753;28;51183;-46
2023/02/14 06:55:27;;;;;;;;;68.75;48.50;;;;;;;;5053184;28;51317;-47
2023/02/14 06:58:12;;;;;;;;;59.00;45.50;;;;;;;;5041558;28;51601;-45
2023/02/14 07:00:57;;;;;;;;;60.50;47.00;;;;;;;;5041265;28;51050;-44
2023/02/14 07:03:41;;;;;;;;;59.50;46.75;;;;;;;;5041666;28;51153;-43
2023/02/14 07:06:26;;;;;;;;;60.00;46.00;;;;;;;;5048574;28;51266;-48
2023/02/14 07:09:10;;;;;;;;;77.00;67.75;;;;;;;;5046680;28;51237;-46
2023/02/14 07:11:54;;;;;;;;;130.25;124.50;;;;;;;;5061268;28;51235;-46
2023/02/14 07:14:39;;;;;;;;;221.00;201.25;;;;;;;;5051686;28;51170;-48
2023/02/14 07:17:23;;;;;;;;;154.25;143.00;;;;;;;;5041303;28;51023;-45
2023/02/14 07:20:08;;;;;;;;;74.25;60.75;;;;;;;;5054025;28;51107;-45
2023/02/14 07:22:53;;;;;;;;;68.00;52.25;;;;;;;;5061092;28;51025;-46
2023/02/14 07:25:37;;;;;;;;;154.25;146.50;;;;;;;;5060699;28;51065;-47
2023/02/14 07:28:22;;;;;;;;;152.50;140.25;;;;;;;;5061293;28;51192;-45
2023/02/14 07:31:06;;;;;;;;;72.50;61.50;;;;;;;;5056830;28;51179;-45
2023/02/14 07:33:51;;;;;;;;;67.00;51.50;;;;;;;;5040314;28;51126;-47
2023/02/14 07:36:36;;;;;;;;;59.25;46.00;;;;;;;;5040770;28;51121;-49
2023/02/14 07:39:20;;;;;;;;;54.50;42.50;;;;;;;;5046066;28;51430;-46
2023/02/14 07:42:07;;;;;;;;;56.00;45.00;;;;;;;;5060879;28;51133;-49
2023/02/14 07:44:51;;;;;;;;;58.75;45.00;;;;;;;;5060280;28;51074;-47
2023/02/14 07:47:36;;;;;;;;;51.00;41.00;;;;;;;;5053287;28;51682;-46
2023/02/14 07:50:21;;;;;;;;;52.75;43.00;;;;;;;;5040184;28;51030;-47
2023/02/14 07:53:07;;;;;;;;;53.25;42.00;;;;;;;;5040331;28;51236;-47
2023/02/14 07:55:51;;;;;;;;;55.00;43.50;;;;;;;;5039872;28;51169;-47
2023/02/14 07:58:36;;;;;;;;;54.25;43.50;;;;;;;;5040487;28;51132;-50
2023/02/14 08:01:20;;;;;;;;;59.00;47.00;;;;;;;;5053496;28;51687;-49
2023/02/14 08:04:05;;;;;;;;;60.00;46.50;;;;;;;;5060146;28;51057;-47
2023/02/14 08:06:49;;;;;;;;;53.50;42.00;;;;;;;;5060160;28;50998;-47
2023/02/14 08:09:33;;;;;;;;;55.00;42.75;;;;;;;;5048823;28;51474;-46
2023/02/14 08:18:24;;;;;;;;;55.75;42.50;;;;;;;;5060399;28;51176;-47
2023/02/14 08:21:09;;;;;;;;;51.50;43.00;;;;;;;;5050025;28;51096;-49
2023/02/14 08:23:53;;;;;;;;;72.75;57.25;;;;;;;;5059966;28;51115;-46
2023/02/14 08:26:38;;;;;;;;;51.50;40.75;;;;;;;;5059801;28;51102;-48
2023/02/14 08:29:22;;;;;;;;;54.75;44.75;;;;;;;;5059288;28;51125;-49
2023/02/14 08:32:07;;;;;;;;;79.00;74.25;;;;;;;;5049657;28;51087;-45
2023/02/14 08:34:51;;;;;;;;;59.25;45.00;;;;;;;;5055289;28;51132;-46
2023/02/14 08:37:35;;;;;;;;;54.75;42.25;;;;;;;;5048158;28;51024;-46
2023/02/14 08:40:20;;;;;;;;;154.25;141.25;;;;;;;;5043018;28;51027;-48
2023/02/14 08:43:04;;;;;;;;;139.25;127.75;;;;;;;;5051181;28;51157;-46
2023/02/14 08:45:51;;;;;;;;;58.50;45.00;;;;;;;;5043435;28;51263;-47
2023/02/14 08:48:35;;;;;;;;;52.00;41.25;;;;;;;;5052925;28;51124;-46
2023/02/14 08:51:21;;;;;;;;;54.50;43.00;;;;;;;;5046875;28;52091;-47
2023/02/14 08:54:05;;;;;;;;;50.75;37.75;;;;;;;;5042053;28;51169;-48
2023/02/14 08:56:50;;;;;;;;;49.75;38.25;;;;;;;;5046196;28;51160;-50
2023/02/14 08:59:34;;;;;;;;;49.00;40.00;;;;;;;;5048660;28;51417;-46
2023/02/14 09:02:19;;;;;;;;;49.25;39.50;;;;;;;;5043971;28;51224;-49
2023/02/14 09:05:05;;;;;;;;;48.50;39.25;;;;;;;;5050319;28;51339;-49
2023/02/14 09:07:49;;;;;;;;;47.00;39.25;;;;;;;;5041260;28;51153;-48
2023/02/14 09:10:34;;;;;;;;;40.75;32.25;;;;;;;;5051841;28;51195;-46
2023/02/14 09:13:18;;;;;;;;;42.50;32.25;;;;;;;;5053362;28;51171;-47
2023/02/14 09:16:04;;;;;;;;;46.00;37.00;;;;;;;;5041544;28;51694;-46
2023/02/14 09:18:48;;;;;;;;;54.00;44.00;;;;;;;;5040699;28;51242;-46
2023/02/14 09:21:33;;;;;;;;;47.75;39.25;;;;;;;;5038045;28;51139;-46
2023/02/14 09:24:17;;;;;;;;;46.25;38.25;;;;;;;;5039713;28;51154;-46
2023/02/14 09:27:02;;;;;;;;;49.50;36.00;;;;;;;;5058231;28;51397;-45
2023/02/14 09:29:46;;;;;;;;;45.50;37.75;;;;;;;;5042746;28;51244;-46
2023/02/14 09:32:30;;;;;;;;;45.00;37.00;;;;;;;;5039043;28;51096;-44
2023/02/14 09:35:15;;;;;;;;;47.75;36.75;;;;;;;;5042877;28;51565;-47
2023/02/14 09:37:59;;;;;;;;;48.25;39.00;;;;;;;;5050866;28;51026;-48
2023/02/14 09:40:44;;;;;;;;;46.75;37.25;;;;;;;;5062909;28;51511;-47
2023/02/14 09:43:35;;;;;;;;;42.75;35.00;;;;;;;;5049618;28;51150;-47
2023/02/14 09:46:21;;;;;;;;;47.25;37.25;;;;;;;;5042676;28;51217;-45
2023/02/14 09:49:10;;;;;;;;;43.00;36.00;;;;;;;;5059327;28;51562;-48
2023/02/14 09:51:55;;;;;;;;;46.50;36.75;;;;;;;;5048562;28;51122;-48
2023/02/14 09:54:40;;;;;;;;;44.50;37.25;;;;;;;;5041983;28;51146;-48
2023/02/14 09:57:27;;;;;;;;;47.50;36.00;;;;;;;;5042794;28;51112;-48
2023/02/14 10:00:27;;;;;;;;;49.75;41.00;;;;;;;;5057075;28;51564;-46
2023/02/14 10:03:34;;;;;;;;;45.75;36.75;;;;;;;;5056607;28;51068;-47
2023/02/14 10:06:18;;;;;;;;;46.75;37.75;;;;;;;;5062335;28;51568;-48
2023/02/14 10:09:06;;;;;;;;;51.25;38.25;;;;;;;;5062213;28;51140;-46
2023/02/14 10:11:54;;;;;;;;;45.00;35.75;;;;;;;;5062787;28;51035;-47
2023/02/14 10:14:39;;;;;;;;;41.75;33.50;;;;;;;;5062219;28;51156;-46
2023/02/14 10:17:30;;;;;;;;;44.75;34.75;;;;;;;;5062437;28;51096;-47
2023/02/14 10:20:33;;;;;;;;;41.75;33.75;;;;;;;;5061949;28;51252;-48
2023/02/14 10:23:20;;;;;;;;;35.75;31.75;;;;;;;;5062629;28;51155;-47
2023/02/14 10:26:07;;;;;;;;;39.75;32.25;;;;;;;;5061745;28;51408;-50
2023/02/14 10:28:53;;;;;;;;;37.50;31.75;;;;;;;;5062467;28;51394;-48
2023/02/14 10:31:37;;;;;;;;;38.00;33.25;;;;;;;;5062002;28;51615;-46
2023/02/14 10:34:41;;;;;;;;;38.00;30.50;;;;;;;;5046111;28;51181;-48
2023/02/14 10:37:45;;;;;;;;;33.25;30.75;;;;;;;;5040458;28;51189;-51
2023/02/14 10:40:48;;;;;;;;;39.00;32.00;;;;;;;;5041977;28;51122;-48
2023/02/14 10:43:50;;;;;;;;;36.75;29.25;;;;;;;;5041863;28;51774;-47
2023/02/14 10:46:44;;;;;;;;;37.75;31.00;;;;;;;;5041664;28;51082;-50
2023/02/14 10:49:34;;;;;;;;;29.50;28.00;;;;;;;;5041907;28;51003;-48
2023/02/14 10:52:21;;;;;;;;;35.25;30.75;;;;;;;;5041715;28;51189;-45
2023/02/14 10:55:17;;;;;;;;;37.50;30.50;;;;;;;;5061502;28;51070;-47
2023/02/14 10:58:03;;;;;;;;;37.25;30.75;;;;;;;;5061640;28;51669;-47
2023/02/14 11:01:07;;;;;;;;;33.25;30.50;;;;;;;;5053037;28;51130;-48
2023/02/14 11:03:52;;;;;;;;;34.75;29.50;;;;;;;;5061603;28;51007;-48
2023/02/14 11:06:36;;;;;;;;;35.50;29.75;;;;;;;;5061258;28;51138;-48
2023/02/14 11:09:20;;;;;;;;;39.00;31.25;;;;;;;;5061912;28;51473;-48
2023/02/14 11:12:05;;;;;;;;;36.00;29.25;;;;;;;;5061037;28;51055;-48
2023/02/14 11:15:03;;;;;;;;;37.00;30.75;;;;;;;;5061662;28;51038;-48
2023/02/14 11:17:47;;;;;;;;;31.25;29.50;;;;;;;;5061200;28;50992;-47
2023/02/14 11:20:31;;;;;;;;;38.50;30.50;;;;;;;;5061275;28;51167;-46
2023/02/14 11:23:17;;;;;;;;;33.50;28.50;;;;;;;;5061282;28;51135;-47
2023/02/14 11:26:03;;;;;;;;;35.25;30.75;;;;;;;;5058639;28;51137;-46
2023/02/14 11:28:50;;;;;;;;;32.25;28.75;;;;;;;;5061087;28;51099;-46
2023/02/14 11:31:35;;;;;;;;;34.75;27.00;;;;;;;;5061080;28;51207;-47
2023/02/14 11:34:35;;;;;;;;;24.00;20.50;;;;;;;;5060889;28;51462;-46
2023/02/14 11:37:23;;;;;;;;;33.25;28.75;;;;;;;;5048896;28;51102;-48
2023/02/14 11:40:26;;;;;;;;;37.50;29.75;;;;;;;;5050742;28;51185;-46
2023/02/14 11:46:12;;;;;;;;;35.75;30.50;;;;;;;;4997215;28;51092;-47
2023/02/14 11:48:57;;;;;;;;;30.75;26.25;;;;;;;;4998703;28;51500;-46
2023/02/14 11:51:44;;;;;;;;;28.50;24.75;;;;;;;;4998107;28;51106;-47
2023/02/14 11:54:33;;;;;;;;;34.25;29.25;;;;;;;;4998583;28;51216;-48
2023/02/14 11:57:17;;;;;;;;;33.25;25.75;;;;;;;;4997961;28;51230;-46
2023/02/14 12:00:03;;;;;;;;;37.00;29.50;;;;;;;;4997531;28;51461;-48
2023/02/14 12:02:49;;;;;;;;;38.25;30.00;;;;;;;;4998012;28;51091;-47
2023/02/14 12:05:43;;;;;;;;;32.00;27.75;;;;;;;;4998232;28;51519;-48
2023/02/14 12:08:30;;;;;;;;;34.00;30.50;;;;;;;;4997811;28;51474;-46
2023/02/14 12:11:19;;;;;;;;;35.75;29.25;;;;;;;;4995306;28;51123;-51
2023/02/14 12:14:04;;;;;;;;;33.25;28.75;;;;;;;;4998118;28;51203;-48
2023/02/14 12:16:57;;;;;;;;;37.50;30.25;;;;;;;;4997984;28;51222;-44
2023/02/14 12:19:45;;;;;;;;;33.00;28.50;;;;;;;;4992998;28;50987;-48
2023/02/14 12:22:36;;;;;;;;;36.00;30.50;;;;;;;;5013219;28;51135;-46
2023/02/14 12:25:26;;;;;;;;;30.25;25.75;;;;;;;;5059990;28;51560;-48
2023/02/14 12:28:12;;;;;;;;;29.75;28.75;;;;;;;;5051803;28;51196;-47
2023/02/14 12:30:57;;;;;;;;;40.25;29.75;;;;;;;;5057300;28;51256;-47
2023/02/14 12:33:41;;;;;;;;;35.50;30.50;;;;;;;;5059810;28;51134;-49
2023/02/14 12:36:58;;;;;;;;;32.00;29.00;;;;;;;;5059519;28;51135;-47
2023/02/14 12:40:01;;;;;;;;;33.50;28.00;;;;;;;;5033901;28;51506;-47
2023/02/14 12:42:48;;;;;;;;;38.25;30.75;;;;;;;;5046678;28;51221;-47
2023/02/14 12:45:48;;;;;;;;;30.50;28.50;;;;;;;;5039225;28;51351;-49
2023/02/14 12:48:46;;;;;;;;;29.75;25.25;;;;;;;;5038334;28;51100;-47
2023/02/14 12:52:08;;;;;;;;;34.25;28.75;;;;;;;;5021834;28;51500;-47
2023/02/14 12:54:52;;;;;;;;;38.00;29.75;;;;;;;;5002944;28;51264;-48
2023/02/14 12:57:50;;;;;;;;;34.25;27.50;;;;;;;;5005008;28;51237;-47
2023/02/14 13:00:44;;;;;;;;;33.00;27.00;;;;;;;;5036501;28;51077;-46
2023/02/14 13:03:28;;;;;;;;;33.75;30.25;;;;;;;;5030817;28;51167;-47
2023/02/14 13:06:23;;;;;;;;;32.50;24.75;;;;;;;;4998826;28;51695;-46
2023/02/14 13:09:26;;;;;;;;;34.50;29.25;;;;;;;;5028234;28;51184;-48
2023/02/14 13:12:28;;;;;;;;;33.00;27.75;;;;;;;;5000047;28;51362;-45
2023/02/14 13:15:17;;;;;;;;;31.75;28.00;;;;;;;;5040850;28;51199;-46
2023/02/14 13:21:09;;;;;;;;;32.25;27.00;;;;;;;;4961790;28;51121;-45
2023/02/14 13:23:57;;;;;;;;;26.50;19.75;;;;;;;;4942158;28;51257;-47
2023/02/14 13:26:44;;;;;;;;;35.00;28.75;;;;;;;;4933976;28;51525;-47
2023/02/14 13:29:32;;;;;;;;;33.50;28.00;;;;;;;;4942363;28;51116;-47
2023/02/14 13:35:02;;;;;;;;;29.00;24.75;;;;;;;;4904062;28;51259;-45
2023/02/14 13:37:54;;;;;;;;;27.75;27.25;;;;;;;;4919278;28;51110;-45
2023/02/14 13:40:39;;;;;;;;;30.75;26.50;;;;;;;;4903902;28;51326;-46
2023/02/14 13:43:41;;;;;;;;;37.00;27.25;;;;;;;;4922983;28;51577;-48
2023/02/14 13:46:31;;;;;;;;;34.50;29.00;;;;;;;;4903668;28;51176;-45
2023/02/14 13:49:15;;;;;;;;;32.00;26.75;;;;;;;;4920243;28;51228;-46
2023/02/14 13:52:02;;;;;;;;;33.00;27.50;;;;;;;;4919800;28;51330;-46
2023/02/14 13:54:47;;;;;;;;;28.75;25.50;;;;;;;;4904889;28;51145;-46
2023/02/14 13:58:04;;;;;;;;;30.25;27.00;;;;;;;;4898635;28;51200;-45
2023/02/14 14:00:50;;;;;;;;;30.75;25.75;;;;;;;;4941188;28;51560;-46
2023/02/14 14:03:37;;;;;;;;;27.50;21.75;;;;;;;;4934732;28;52059;-48
2023/02/14 14:06:21;;;;;;;;;33.00;28.25;;;;;;;;4921999;28;51234;-46
2023/02/14 14:09:09;;;;;;;;;33.25;30.00;;;;;;;;4940767;28;51124;-46
2023/02/14 14:11:53;;;;;;;;;37.75;29.00;;;;;;;;4954992;28;51108;-51
2023/02/14 14:14:38;;;;;;;;;40.75;29.25;;;;;;;;4980491;28;51219;-47
2023/02/14 14:17:24;;;;;;;;;30.00;28.00;;;;;;;;4967567;28;51449;-46
2023/02/14 14:20:14;;;;;;;;;32.25;28.25;;;;;;;;4968877;28;51095;-48
2023/02/14 14:23:00;;;;;;;;;36.50;29.25;;;;;;;;4965236;28;51529;-47
2023/02/14 14:25:44;;;;;;;;;29.75;28.25;;;;;;;;4962422;28;51242;-45
2023/02/14 14:28:30;;;;;;;;;32.25;28.50;;;;;;;;5009091;28;51494;-46
2023/02/14 14:31:18;;;;;;;;;35.00;30.00;;;;;;;;5061901;28;51206;-46
2023/02/14 14:34:02;;;;;;;;;31.00;28.25;;;;;;;;5043148;28;51149;-45
2023/02/14 14:36:47;;;;;;;;;36.00;30.50;;;;;;;;5041579;28;51221;-46
2023/02/14 14:39:52;;;;;;;;;31.50;29.25;;;;;;;;4970008;28;51554;-47
2023/02/14 14:42:39;;;;;;;;;30.50;27.75;;;;;;;;4960271;28;51233;-46
2023/02/14 14:45:24;;;;;;;;;36.25;28.00;;;;;;;;4979525;28;51162;-48
2023/02/14 14:48:15;;;;;;;;;30.50;28.00;;;;;;;;4965732;28;51419;-47
2023/02/14 14:51:00;;;;;;;;;27.75;22.50;;;;;;;;4980048;28;51227;-46
2023/02/14 14:53:54;;;;;;;;;35.25;27.25;;;;;;;;4959864;28;51686;-45
2023/02/14 15:00:17;;;;;;;;;33.50;27.50;;;;;;;;4940775;28;51156;-45
2023/02/14 15:03:04;;;;;;;;;34.25;30.00;;;;;;;;4939100;28;51139;-47
2023/02/14 15:05:49;;;;;;;;;22.25;22.25;;;;;;;;4953894;28;51085;-46
2023/02/14 15:08:34;;;;;;;;;33.25;27.00;;;;;;;;4935358;28;51454;-48
2023/02/14 15:14:31;;;;;;;;;40.00;29.00;;;;;;;;4998658;28;51104;-47
2023/02/14 15:22:50;;;;;;;;;34.75;27.25;;;;;;;;4939886;28;51145;-49
2023/02/14 15:25:36;;;;;;;;;29.50;26.25;;;;;;;;4939945;28;51561;-48
2023/02/14 15:28:27;;;;;;;;;29.75;25.75;;;;;;;;4939951;28;51516;-46
2023/02/14 15:31:11;;;;;;;;;31.50;28.00;;;;;;;;4952323;28;51118;-47
2023/02/14 15:33:58;;;;;;;;;31.75;25.00;;;;;;;;4959072;28;51143;-45
2023/02/14 15:36:47;;;;;;;;;22.50;22.50;;;;;;;;4959540;28;51252;-45
2023/02/14 15:39:34;;;;;;;;;31.00;23.50;;;;;;;;4958984;28;51111;-47
2023/02/14 15:42:24;;;;;;;;;79.25;71.75;;;;;;;;4959343;28;51117;-49
2023/02/14 15:45:24;;;;;;;;;69.75;53.25;;;;;;;;4959046;28;51731;-49
2023/02/14 15:48:15;;;;;;;;;51.25;40.75;;;;;;;;4959268;28;51250;-45
2023/02/14 15:51:00;;;;;;;;;44.25;36.00;;;;;;;;4959179;28;51651;-44
2023/02/14 15:53:50;;;;;;;;;38.75;31.50;;;;;;;;4958679;28;51096;-46
2023/02/14 15:56:50;;;;;;;;;35.50;30.75;;;;;;;;4932089;28;51040;-47
2023/02/14 15:59:35;;;;;;;;;32.25;26.75;;;;;;;;4965044;28;51391;-46
2023/02/14 16:02:19;;;;;;;;;38.50;32.25;;;;;;;;4978266;28;51203;-46
2023/02/14 16:05:22;;;;;;;;;32.50;29.25;;;;;;;;4978193;28;51214;-46
2023/02/14 16:08:25;;;;;;;;;38.25;29.25;;;;;;;;4978729;28;51066;-47
2023/02/14 16:11:14;;;;;;;;;30.00;25.75;;;;;;;;4978260;28;51514;-47
2023/02/14 16:14:18;;;;;;;;;33.75;27.75;;;;;;;;4978205;28;51373;-46
2023/02/14 16:17:10;;;;;;;;;28.00;27.25;;;;;;;;4978167;28;51501;-46
2023/02/14 16:19:54;;;;;;;;;35.50;30.75;;;;;;;;4977840;28;51110;-48
2023/02/14 16:22:38;;;;;;;;;34.00;28.00;;;;;;;;4979129;28;51091;-48
2023/02/14 16:25:22;;;;;;;;;31.25;26.25;;;;;;;;4977762;28;51105;-45
2023/02/14 16:28:07;;;;;;;;;8.50;6.75;;;;;;;;4978110;28;51188;-46
2023/02/14 16:30:53;;;;;;;;;28.50;27.00;;;;;;;;4977682;28;51133;-47
2023/02/14 16:33:38;;;;;;;;;38.00;30.75;;;;;;;;5037672;28;51103;-46
2023/02/14 16:36:23;;;;;;;;;33.75;28.50;;;;;;;;5039316;28;51206;-48
2023/02/14 16:39:34;;;;;;;;;35.00;31.00;;;;;;;;5039473;28;51159;-45
2023/02/14 16:42:18;;;;;;;;;41.75;34.00;;;;;;;;5039870;28;51525;-48
2023/02/14 16:45:03;;;;;;;;;41.25;33.00;;;;;;;;5058447;28;51064;-51
2023/02/14 16:47:48;;;;;;;;;27.25;27.25;;;;;;;;5059805;28;51050;-48
2023/02/14 16:50:33;;;;;;;;;36.50;30.00;;;;;;;;5059557;28;51484;-48
2023/02/14 16:53:23;;;;;;;;;30.50;27.00;;;;;;;;5044671;28;51055;-48
2023/02/14 16:56:20;;;;;;;;;35.00;31.00;;;;;;;;5058605;28;51092;-46